sensor_id;sensor_type;location;lat;lon;timestamp;pressure;altitude;pressure_sealevel;temperature;humidity
6038;BME280;3047;42.600;23.470;2023-05-14T00:00:12;93505.06;;;13.91;83.05
6038;BME280;3047;42.600;23.470;2023-05-14T00:02:38;93468.72;;;13.89;82.26
6038;BME280;3047;42.600;23.470;2023-05-14T00:05:06;93498.47;;;14.10;81.00
6038;BME280;3047;42.600;23.470;2023-05-14T00:07:32;93491.56;;;13.90;82.22
6038;BME280;3047;42.600;23.470;2023-05-14T00:10:01;93490.56;;;13.94;82.98
6038;BME280;3047;42.600;23.470;2023-05-14T00:12:27;93492.72;;;14.05;80.51
6038;BME280;3047;42.600;23.470;2023-05-14T00:14:54;93491.97;;;14.01;82.03
6038;BME280;3047;42.600;23.470;2023-05-14T00:17:21;93449.94;;;13.94;80.71
6038;BME280;3047;42.600;23.470;2023-05-14T00:19:48;93485.50;;;13.94;83.02
6038;BME280;3047;42.600;23.470;2023-05-14T00:22:15;93465.34;;;13.90;82.93
6038;BME280;3047;42.600;23.470;2023-05-14T00:24:42;93478.47;;;14.01;82.18
6038;BME280;3047;42.600;23.470;2023-05-14T00:27:10;93488.88;;;13.93;82.97
6038;BME280;3047;42.600;23.470;2023-05-14T00:29:36;93471.06;;;13.95;84.91
6038;BME280;3047;42.600;23.470;2023-05-14T00:32:04;93460.25;;;13.90;81.67
6038;BME280;3047;42.600;23.470;2023-05-14T00:34:30;93429.50;;;13.74;83.04
6038;BME280;3047;42.600;23.470;2023-05-14T00:36:57;93471.63;;;14.03;81.19
6038;BME280;3047;42.600;23.470;2023-05-14T00:39:24;93460.09;;;13.94;81.27
6038;BME280;3047;42.600;23.470;2023-05-14T00:41:51;93471.09;;;13.93;80.95
6038;BME280;3047;42.600;23.470;2023-05-14T00:44:19;93465.75;;;14.01;80.63
6038;BME280;3047;42.600;23.470;2023-05-14T00:46:46;93455.94;;;13.92;80.65
6038;BME280;3047;42.600;23.470;2023-05-14T00:49:12;93462.91;;;13.87;81.50
6038;BME280;3047;42.600;23.470;2023-05-14T00:51:40;93458.81;;;13.82;82.01
6038;BME280;3047;42.600;23.470;2023-05-14T00:54:07;93449.63;;;13.78;82.02
6038;BME280;3047;42.600;23.470;2023-05-14T00:56:33;93459.78;;;13.78;82.85
6038;BME280;3047;42.600;23.470;2023-05-14T00:59:00;93436.84;;;13.81;81.47
6038;BME280;3047;42.600;23.470;2023-05-14T01:01:28;93455.75;;;13.73;82.51
6038;BME280;3047;42.600;23.470;2023-05-14T01:03:56;93450.50;;;13.52;83.78
6038;BME280;3047;42.600;23.470;2023-05-14T01:06:30;93450.09;;;13.65;82.57
6038;BME280;3047;42.600;23.470;2023-05-14T01:09:09;93451.91;;;13.61;82.96
6038;BME280;3047;42.600;23.470;2023-05-14T01:11:51;93454.50;;;13.59;83.02
6038;BME280;3047;42.600;23.470;2023-05-14T01:14:24;93448.97;;;13.48;85.23
6038;BME280;3047;42.600;23.470;2023-05-14T01:16:57;93453.78;;;13.56;85.07
6038;BME280;3047;42.600;23.470;2023-05-14T01:19:39;93451.88;;;13.63;80.60
6038;BME280;3047;42.600;23.470;2023-05-14T01:22:08;93447.41;;;13.44;82.43
6038;BME280;3047;42.600;23.470;2023-05-14T01:24:34;93453.13;;;13.26;83.60
6038;BME280;3047;42.600;23.470;2023-05-14T01:27:06;93449.78;;;13.24;84.67
6038;BME280;3047;42.600;23.470;2023-05-14T01:29:36;93476.38;;;13.39;86.05
6038;BME280;3047;42.600;23.470;2023-05-14T01:32:06;93454.09;;;13.20;82.29
6038;BME280;3047;42.600;23.470;2023-05-14T01:34:35;93436.34;;;13.20;81.67
6038;BME280;3047;42.600;23.470;2023-05-14T01:37:03;93477.00;;;13.45;82.79
6038;BME280;3047;42.600;23.470;2023-05-14T01:39:32;93463.59;;;13.42;82.73
6038;BME280;3047;42.600;23.470;2023-05-14T01:42:02;93473.03;;;13.36;82.88
6038;BME280;3047;42.600;23.470;2023-05-14T01:44:29;93473.97;;;13.34;83.14
6038;BME280;3047;42.600;23.470;2023-05-14T01:46:56;93478.59;;;13.21;83.67
6038;BME280;3047;42.600;23.470;2023-05-14T01:49:23;93486.84;;;13.28;83.81
6038;BME280;3047;42.600;23.470;2023-05-14T01:51:50;93485.78;;;13.35;81.90
6038;BME280;3047;42.600;23.470;2023-05-14T01:54:16;93489.94;;;13.38;81.86
6038;BME280;3047;42.600;23.470;2023-05-14T01:56:44;93497.44;;;13.41;82.57
6038;BME280;3047;42.600;23.470;2023-05-14T01:59:11;93501.59;;;13.43;80.35
6038;BME280;3047;42.600;23.470;2023-05-14T02:01:38;93484.97;;;13.34;81.20
6038;BME280;3047;42.600;23.470;2023-05-14T02:04:04;93492.56;;;13.34;81.73
6038;BME280;3047;42.600;23.470;2023-05-14T02:06:31;93486.19;;;13.23;83.23
6038;BME280;3047;42.600;23.470;2023-05-14T02:08:59;93491.13;;;12.99;85.54
6038;BME280;3047;42.600;23.470;2023-05-14T02:11:25;93488.03;;;13.16;82.46
6038;BME280;3047;42.600;23.470;2023-05-14T02:13:53;93500.72;;;13.16;84.23
6038;BME280;3047;42.600;23.470;2023-05-14T02:16:20;93489.91;;;13.11;86.24
6038;BME280;3047;42.600;23.470;2023-05-14T02:18:47;93486.59;;;13.09;88.36
6038;BME280;3047;42.600;23.470;2023-05-14T02:21:13;93485.22;;;12.99;93.25
6038;BME280;3047;42.600;23.470;2023-05-14T02:23:40;93487.00;;;12.95;87.55
6038;BME280;3047;42.600;23.470;2023-05-14T02:26:08;93454.66;;;12.77;85.61
6038;BME280;3047;42.600;23.470;2023-05-14T02:28:34;93481.94;;;12.95;89.29
6038;BME280;3047;42.600;23.470;2023-05-14T02:31:03;93494.69;;;12.94;86.08
6038;BME280;3047;42.600;23.470;2023-05-14T02:33:29;93466.78;;;12.94;86.29
6038;BME280;3047;42.600;23.470;2023-05-14T02:35:56;93477.47;;;12.77;89.31
6038;BME280;3047;42.600;23.470;2023-05-14T02:38:23;93470.63;;;12.79;87.70
6038;BME280;3047;42.600;23.470;2023-05-14T02:40:49;93482.63;;;12.74;88.38
6038;BME280;3047;42.600;23.470;2023-05-14T02:43:16;93489.84;;;12.58;91.48
6038;BME280;3047;42.600;23.470;2023-05-14T02:45:43;93476.41;;;12.56;92.70
6038;BME280;3047;42.600;23.470;2023-05-14T02:48:11;93487.50;;;12.52;92.83
6038;BME280;3047;42.600;23.470;2023-05-14T02:50:37;93457.69;;;12.32;93.56
6038;BME280;3047;42.600;23.470;2023-05-14T02:53:04;93505.84;;;12.60;90.86
6038;BME280;3047;42.600;23.470;2023-05-14T02:55:32;93509.06;;;12.65;89.75
6038;BME280;3047;42.600;23.470;2023-05-14T02:57:58;93505.88;;;12.58;91.01
6038;BME280;3047;42.600;23.470;2023-05-14T03:00:25;93488.50;;;12.46;89.17
6038;BME280;3047;42.600;23.470;2023-05-14T03:02:52;93509.66;;;12.73;86.80
6038;BME280;3047;42.600;23.470;2023-05-14T03:05:20;93510.59;;;12.71;86.97
6038;BME280;3047;42.600;23.470;2023-05-14T03:07:48;93517.72;;;12.58;87.10
6038;BME280;3047;42.600;23.470;2023-05-14T03:10:15;93500.88;;;12.57;87.95
6038;BME280;3047;42.600;23.470;2023-05-14T03:12:42;93499.47;;;12.47;88.40
6038;BME280;3047;42.600;23.470;2023-05-14T03:15:10;93487.72;;;12.44;88.15
6038;BME280;3047;42.600;23.470;2023-05-14T03:17:36;93483.50;;;12.45;88.37
6038;BME280;3047;42.600;23.470;2023-05-14T03:20:04;93431.97;;;12.16;89.34
6038;BME280;3047;42.600;23.470;2023-05-14T03:22:32;93465.97;;;12.37;92.55
6038;BME280;3047;42.600;23.470;2023-05-14T03:24:59;93456.88;;;12.30;94.76
6038;BME280;3047;42.600;23.470;2023-05-14T03:27:25;93445.03;;;12.32;93.41
6038;BME280;3047;42.600;23.470;2023-05-14T03:29:52;93461.06;;;12.31;91.42
6038;BME280;3047;42.600;23.470;2023-05-14T03:32:19;93447.88;;;11.92;93.70
6038;BME280;3047;42.600;23.470;2023-05-14T03:34:45;93469.72;;;11.94;95.08
6038;BME280;3047;42.600;23.470;2023-05-14T03:37:12;93455.78;;;11.78;97.60
6038;BME280;3047;42.600;23.470;2023-05-14T03:39:40;93482.84;;;11.76;98.98
6038;BME280;3047;42.600;23.470;2023-05-14T03:42:07;93476.66;;;11.87;99.42
6038;BME280;3047;42.600;23.470;2023-05-14T03:44:34;93471.72;;;11.83;98.60
6038;BME280;3047;42.600;23.470;2023-05-14T03:47:00;93465.13;;;11.76;98.40
6038;BME280;3047;42.600;23.470;2023-05-14T03:49:27;93479.50;;;11.74;96.46
6038;BME280;3047;42.600;23.470;2023-05-14T03:51:54;93468.00;;;11.62;95.93
6038;BME280;3047;42.600;23.470;2023-05-14T03:54:21;93474.81;;;11.60;97.92
6038;BME280;3047;42.600;23.470;2023-05-14T03:56:49;93474.75;;;11.63;94.73
6038;BME280;3047;42.600;23.470;2023-05-14T03:59:16;93484.78;;;11.66;94.59
6038;BME280;3047;42.600;23.470;2023-05-14T04:01:43;93484.78;;;11.66;94.42
6038;BME280;3047;42.600;23.470;2023-05-14T04:04:10;93474.63;;;11.68;93.65
6038;BME280;3047;42.600;23.470;2023-05-14T04:06:36;93469.50;;;11.69;93.58
6038;BME280;3047;42.600;23.470;2023-05-14T04:09:09;93466.72;;;11.78;92.36
6038;BME280;3047;42.600;23.470;2023-05-14T04:11:37;93487.97;;;11.73;93.44
6038;BME280;3047;42.600;23.470;2023-05-14T04:14:05;93490.47;;;11.74;92.92
6038;BME280;3047;42.600;23.470;2023-05-14T04:16:32;93493.81;;;11.76;93.31
6038;BME280;3047;42.600;23.470;2023-05-14T04:19:00;93461.09;;;11.69;91.63
6038;BME280;3047;42.600;23.470;2023-05-14T04:21:28;93492.53;;;11.93;92.63
6038;BME280;3047;42.600;23.470;2023-05-14T04:23:54;93488.50;;;11.87;92.49
6038;BME280;3047;42.600;23.470;2023-05-14T04:26:21;93504.88;;;12.05;90.64
6038;BME280;3047;42.600;23.470;2023-05-14T04:28:48;93509.19;;;12.01;90.09
6038;BME280;3047;42.600;23.470;2023-05-14T04:31:16;93499.94;;;12.00;90.09
6038;BME280;3047;42.600;23.470;2023-05-14T04:33:43;93505.03;;;11.99;90.98
6038;BME280;3047;42.600;23.470;2023-05-14T04:36:09;93505.25;;;11.91;93.67
6038;BME280;3047;42.600;23.470;2023-05-14T04:38:36;93512.00;;;11.91;91.96
6038;BME280;3047;42.600;23.470;2023-05-14T04:41:04;93493.19;;;11.67;91.22
6038;BME280;3047;42.600;23.470;2023-05-14T04:43:31;93519.88;;;11.78;92.76
6038;BME280;3047;42.600;23.470;2023-05-14T04:45:58;93529.38;;;11.70;92.63
6038;BME280;3047;42.600;23.470;2023-05-14T04:48:26;93521.00;;;11.68;92.80
6038;BME280;3047;42.600;23.470;2023-05-14T04:50:53;93511.06;;;11.60;94.01
6038;BME280;3047;42.600;23.470;2023-05-14T04:53:20;93507.41;;;11.38;95.02
6038;BME280;3047;42.600;23.470;2023-05-14T04:55:46;93511.22;;;11.20;96.53
6038;BME280;3047;42.600;23.470;2023-05-14T04:58:13;93523.75;;;11.25;98.26
6038;BME280;3047;42.600;23.470;2023-05-14T05:00:40;93539.03;;;11.20;98.50
6038;BME280;3047;42.600;23.470;2023-05-14T05:03:06;93532.91;;;10.95;100.00
6038;BME280;3047;42.600;23.470;2023-05-14T05:05:34;93532.84;;;10.96;100.00
6038;BME280;3047;42.600;23.470;2023-05-14T05:25:52;93551.44;;;10.55;100.00
6038;BME280;3047;42.600;23.470;2023-05-14T05:28:19;93568.56;;;10.40;100.00
6038;BME280;3047;42.600;23.470;2023-05-14T05:30:46;93565.44;;;10.29;100.00
6038;BME280;3047;42.600;23.470;2023-05-14T05:33:12;93592.50;;;10.21;100.00
6038;BME280;3047;42.600;23.470;2023-05-14T05:35:39;93597.69;;;10.13;100.00
6038;BME280;3047;42.600;23.470;2023-05-14T05:38:06;93581.63;;;10.18;100.00
6038;BME280;3047;42.600;23.470;2023-05-14T05:40:32;93584.16;;;10.16;100.00
6038;BME280;3047;42.600;23.470;2023-05-14T05:43:01;93596.91;;;10.10;100.00
6038;BME280;3047;42.600;23.470;2023-05-14T05:45:27;93601.00;;;10.17;100.00
6038;BME280;3047;42.600;23.470;2023-05-14T05:47:54;93590.03;;;10.16;100.00
6038;BME280;3047;42.600;23.470;2023-05-14T05:50:20;93592.00;;;10.02;100.00
6038;BME280;3047;42.600;23.470;2023-05-14T05:52:47;93593.00;;;9.94;100.00
6038;BME280;3047;42.600;23.470;2023-05-14T05:55:14;93603.63;;;10.11;100.00
6038;BME280;3047;42.600;23.470;2023-05-14T05:57:41;93602.88;;;10.04;100.00
6038;BME280;3047;42.600;23.470;2023-05-14T06:00:10;93606.97;;;10.11;100.00
6038;BME280;3047;42.600;23.470;2023-05-14T06:02:40;93601.09;;;10.11;100.00
6038;BME280;3047;42.600;23.470;2023-05-14T06:05:08;93606.09;;;10.14;100.00
6038;BME280;3047;42.600;23.470;2023-05-14T06:07:35;93575.94;;;10.06;100.00
6038;BME280;3047;42.600;23.470;2023-05-14T06:10:02;93576.78;;;10.07;100.00
6038;BME280;3047;42.600;23.470;2023-05-14T06:12:29;93561.75;;;10.01;100.00
6038;BME280;3047;42.600;23.470;2023-05-14T06:14:55;93596.84;;;10.14;100.00
6038;BME280;3047;42.600;23.470;2023-05-14T06:17:24;93610.31;;;10.13;100.00
6038;BME280;3047;42.600;23.470;2023-05-14T06:19:51;93595.13;;;10.15;100.00
6038;BME280;3047;42.600;23.470;2023-05-14T06:22:18;93591.13;;;10.05;100.00
6038;BME280;3047;42.600;23.470;2023-05-14T06:24:46;93582.00;;;9.96;100.00
6038;BME280;3047;42.600;23.470;2023-05-14T06:27:13;93583.78;;;9.91;100.00
6038;BME280;3047;42.600;23.470;2023-05-14T06:29:39;93575.47;;;9.86;100.00
6038;BME280;3047;42.600;23.470;2023-05-14T06:32:07;93562.16;;;9.78;100.00
6038;BME280;3047;42.600;23.470;2023-05-14T06:34:35;93549.16;;;9.51;100.00
6038;BME280;3047;42.600;23.470;2023-05-14T06:37:02;93564.16;;;9.60;100.00
6038;BME280;3047;42.600;23.470;2023-05-14T06:39:29;93582.91;;;9.46;100.00
6038;BME280;3047;42.600;23.470;2023-05-14T06:41:56;93603.75;;;9.55;100.00
6038;BME280;3047;42.600;23.470;2023-05-14T06:44:23;93596.97;;;9.59;100.00
6038;BME280;3047;42.600;23.470;2023-05-14T06:46:49;93589.31;;;9.65;100.00
6038;BME280;3047;42.600;23.470;2023-05-14T06:49:16;93586.22;;;9.48;100.00
6038;BME280;3047;42.600;23.470;2023-05-14T06:51:44;93566.28;;;9.34;100.00
6038;BME280;3047;42.600;23.470;2023-05-14T06:54:11;93601.00;;;9.68;100.00
6038;BME280;3047;42.600;23.470;2023-05-14T06:56:38;93568.13;;;9.74;100.00
6038;BME280;3047;42.600;23.470;2023-05-14T06:59:04;93558.78;;;9.80;100.00
6038;BME280;3047;42.600;23.470;2023-05-14T07:01:31;93571.25;;;9.86;100.00
6038;BME280;3047;42.600;23.470;2023-05-14T07:03:58;93565.44;;;9.83;100.00
6038;BME280;3047;42.600;23.470;2023-05-14T07:06:24;93563.50;;;9.96;100.00
6038;BME280;3047;42.600;23.470;2023-05-14T07:08:52;93557.56;;;10.00;100.00
6038;BME280;3047;42.600;23.470;2023-05-14T07:11:19;93559.16;;;10.05;100.00
6038;BME280;3047;42.600;23.470;2023-05-14T07:13:46;93549.16;;;9.99;100.00
6038;BME280;3047;42.600;23.470;2023-05-14T07:16:13;93551.47;;;10.10;100.00
6038;BME280;3047;42.600;23.470;2023-05-14T07:18:39;93553.88;;;10.16;100.00
6038;BME280;3047;42.600;23.470;2023-05-14T07:21:06;93559.75;;;10.18;100.00
6038;BME280;3047;42.600;23.470;2023-05-14T07:23:33;93575.63;;;10.23;100.00
6038;BME280;3047;42.600;23.470;2023-05-14T07:26:04;93576.47;;;10.25;100.00
6038;BME280;3047;42.600;23.470;2023-05-14T07:28:31;93604.94;;;10.32;100.00
6038;BME280;3047;42.600;23.470;2023-05-14T07:30:58;93604.94;;;10.32;100.00
6038;BME280;3047;42.600;23.470;2023-05-14T07:33:25;93598.22;;;10.31;100.00
6038;BME280;3047;42.600;23.470;2023-05-14T07:35:52;93592.13;;;10.43;100.00
6038;BME280;3047;42.600;23.470;2023-05-14T07:38:19;93586.19;;;10.45;100.00
6038;BME280;3047;42.600;23.470;2023-05-14T07:40:46;93601.28;;;10.47;100.00
6038;BME280;3047;42.600;23.470;2023-05-14T07:43:14;93600.31;;;10.52;100.00
6038;BME280;3047;42.600;23.470;2023-05-14T07:45:41;93597.13;;;10.46;100.00
6038;BME280;3047;42.600;23.470;2023-05-14T07:48:11;93589.59;;;10.43;100.00
6038;BME280;3047;42.600;23.470;2023-05-14T07:50:37;93589.06;;;10.24;100.00
6038;BME280;3047;42.600;23.470;2023-05-14T07:53:04;93597.56;;;10.21;100.00
6038;BME280;3047;42.600;23.470;2023-05-14T07:55:31;93597.56;;;10.20;100.00
6038;BME280;3047;42.600;23.470;2023-05-14T07:57:57;93615.38;;;10.13;100.00
6038;BME280;3047;42.600;23.470;2023-05-14T08:00:25;93612.84;;;10.13;100.00
6038;BME280;3047;42.600;23.470;2023-05-14T08:02:52;93611.09;;;10.15;100.00
6038;BME280;3047;42.600;23.470;2023-05-14T08:05:18;93616.91;;;10.21;100.00
6038;BME280;3047;42.600;23.470;2023-05-14T08:07:45;93602.53;;;10.26;100.00
6038;BME280;3047;42.600;23.470;2023-05-14T08:10:12;93598.34;;;10.25;100.00
6038;BME280;3047;42.600;23.470;2023-05-14T08:12:39;93585.72;;;10.25;100.00
6038;BME280;3047;42.600;23.470;2023-05-14T08:15:07;93595.75;;;10.29;100.00
6038;BME280;3047;42.600;23.470;2023-05-14T08:17:36;93584.97;;;10.18;100.00
6038;BME280;3047;42.600;23.470;2023-05-14T08:20:03;93548.38;;;9.96;100.00
6038;BME280;3047;42.600;23.470;2023-05-14T08:22:31;93538.97;;;10.04;100.00
6038;BME280;3047;42.600;23.470;2023-05-14T08:24:58;93618.53;;;10.23;100.00
6038;BME280;3047;42.600;23.470;2023-05-14T08:27:27;93584.13;;;10.19;100.00
6038;BME280;3047;42.600;23.470;2023-05-14T08:29:54;93581.44;;;10.28;100.00
6038;BME280;3047;42.600;23.470;2023-05-14T08:32:21;93600.91;;;10.20;100.00
6038;BME280;3047;42.600;23.470;2023-05-14T08:34:49;93586.59;;;10.21;100.00
6038;BME280;3047;42.600;23.470;2023-05-14T08:37:16;93596.69;;;10.22;100.00
6038;BME280;3047;42.600;23.470;2023-05-14T08:39:42;93581.59;;;10.19;100.00
6038;BME280;3047;42.600;23.470;2023-05-14T08:42:11;93581.78;;;10.10;100.00
6038;BME280;3047;42.600;23.470;2023-05-14T08:44:44;93582.88;;;9.97;100.00
6038;BME280;3047;42.600;23.470;2023-05-14T08:47:14;93592.06;;;9.99;100.00
6038;BME280;3047;42.600;23.470;2023-05-14T08:49:46;93562.50;;;10.04;100.00
6038;BME280;3047;42.600;23.470;2023-05-14T08:52:17;93569.09;;;10.13;100.00
6038;BME280;3047;42.600;23.470;2023-05-14T08:54:47;93571.63;;;10.11;100.00
6038;BME280;3047;42.600;23.470;2023-05-14T08:57:17;93553.81;;;10.19;100.00
6038;BME280;3047;42.600;23.470;2023-05-14T08:59:45;93581.56;;;10.21;100.00
6038;BME280;3047;42.600;23.470;2023-05-14T09:02:13;93553.03;;;10.15;100.00
6038;BME280;3047;42.600;23.470;2023-05-14T09:04:42;93570.63;;;10.22;100.00
6038;BME280;3047;42.600;23.470;2023-05-14T09:07:09;93567.31;;;10.18;100.00
6038;BME280;3047;42.600;23.470;2023-05-14T09:09:37;93561.59;;;10.10;100.00
6038;BME280;3047;42.600;23.470;2023-05-14T09:12:05;93563.97;;;10.18;100.00
6038;BME280;3047;42.600;23.470;2023-05-14T09:14:32;93561.50;;;10.14;100.00
6038;BME280;3047;42.600;23.470;2023-05-14T09:16:59;93561.53;;;10.13;100.00
6038;BME280;3047;42.600;23.470;2023-05-14T09:19:25;93550.47;;;10.19;100.00
6038;BME280;3047;42.600;23.470;2023-05-14T09:21:56;93547.22;;;10.12;100.00
6038;BME280;3047;42.600;23.470;2023-05-14T09:24:25;93539.69;;;10.10;100.00
6038;BME280;3047;42.600;23.470;2023-05-14T09:26:56;93543.03;;;10.11;100.00
6038;BME280;3047;42.600;23.470;2023-05-14T09:29:23;93555.63;;;10.14;100.00
6038;BME280;3047;42.600;23.470;2023-05-14T09:31:50;93562.50;;;10.04;100.00
6038;BME280;3047;42.600;23.470;2023-05-14T09:34:25;93545.38;;;10.20;100.00
6038;BME280;3047;42.600;23.470;2023-05-14T09:36:55;93533.63;;;10.19;100.00
6038;BME280;3047;42.600;23.470;2023-05-14T09:39:22;93533.41;;;10.31;100.00
6038;BME280;3047;42.600;23.470;2023-05-14T09:41:49;93518.38;;;10.27;100.00
6038;BME280;3047;42.600;23.470;2023-05-14T09:44:18;93550.25;;;10.31;100.00
6038;BME280;3047;42.600;23.470;2023-05-14T09:46:45;93544.22;;;10.38;100.00
6038;BME280;3047;42.600;23.470;2023-05-14T09:49:12;93535.75;;;10.40;100.00
6038;BME280;3047;42.600;23.470;2023-05-14T09:51:39;93518.06;;;10.42;100.00
6038;BME280;3047;42.600;23.470;2023-05-14T09:54:07;93519.56;;;10.51;100.00
6038;BME280;3047;42.600;23.470;2023-05-14T09:56:34;93502.50;;;10.60;100.00
6038;BME280;3047;42.600;23.470;2023-05-14T09:59:02;93481.72;;;10.48;100.00
6038;BME280;3047;42.600;23.470;2023-05-14T10:01:30;93518.41;;;10.64;100.00
6038;BME280;3047;42.600;23.470;2023-05-14T10:03:58;93519.31;;;10.61;100.00
6038;BME280;3047;42.600;23.470;2023-05-14T10:06:27;93509.34;;;10.55;100.00
6038;BME280;3047;42.600;23.470;2023-05-14T10:08:55;93505.38;;;10.44;100.00
6038;BME280;3047;42.600;23.470;2023-05-14T10:11:24;93499.75;;;10.31;100.00
6038;BME280;3047;42.600;23.470;2023-05-14T10:13:55;93500.13;;;10.53;100.00
6038;BME280;3047;42.600;23.470;2023-05-14T10:16:27;93499.28;;;10.54;100.00
6038;BME280;3047;42.600;23.470;2023-05-14T10:19:00;93490.28;;;10.42;100.00
6038;BME280;3047;42.600;23.470;2023-05-14T10:21:33;93483.63;;;10.36;100.00
6038;BME280;3047;42.600;23.470;2023-05-14T10:24:01;93487.91;;;10.34;100.00
6038;BME280;3047;42.600;23.470;2023-05-14T10:26:29;93468.47;;;10.38;100.00
6038;BME280;3047;42.600;23.470;2023-05-14T10:28:56;93485.38;;;10.34;100.00
6038;BME280;3047;42.600;23.470;2023-05-14T10:31:44;93479.47;;;10.35;100.00
6038;BME280;3047;42.600;23.470;2023-05-14T10:34:35;93466.00;;;10.35;100.00
6038;BME280;3047;42.600;23.470;2023-05-14T10:37:06;93474.97;;;10.50;100.00
6038;BME280;3047;42.600;23.470;2023-05-14T10:39:42;93489.13;;;10.55;100.00
6038;BME280;3047;42.600;23.470;2023-05-14T10:42:10;93496.25;;;10.38;100.00
6038;BME280;3047;42.600;23.470;2023-05-14T10:44:41;93488.56;;;10.43;100.00
6038;BME280;3047;42.600;23.470;2023-05-14T10:47:11;93483.63;;;10.36;100.00
6038;BME280;3047;42.600;23.470;2023-05-14T10:49:40;93497.66;;;10.51;100.00
6038;BME280;3047;42.600;23.470;2023-05-14T10:52:08;93499.34;;;10.51;100.00
6038;BME280;3047;42.600;23.470;2023-05-14T10:54:36;93491.72;;;10.52;100.00
6038;BME280;3047;42.600;23.470;2023-05-14T10:57:02;93492.53;;;10.53;100.00
6038;BME280;3047;42.600;23.470;2023-05-14T10:59:32;93492.47;;;10.57;100.00
6038;BME280;3047;42.600;23.470;2023-05-14T11:01:59;93486.78;;;10.48;100.00
6038;BME280;3047;42.600;23.470;2023-05-14T11:04:26;93464.16;;;10.43;100.00
6038;BME280;3047;42.600;23.470;2023-05-14T11:06:55;93452.72;;;10.64;100.00
6038;BME280;3047;42.600;23.470;2023-05-14T11:09:22;93445.13;;;10.66;100.00
6038;BME280;3047;42.600;23.470;2023-05-14T11:11:50;93463.31;;;10.80;100.00
6038;BME280;3047;42.600;23.470;2023-05-14T11:14:17;93460.25;;;10.67;100.00
6038;BME280;3047;42.600;23.470;2023-05-14T11:16:46;93476.88;;;10.76;100.00
6038;BME280;3047;42.600;23.470;2023-05-14T11:19:12;93481.44;;;10.60;100.00
6038;BME280;3047;42.600;23.470;2023-05-14T11:21:40;93475.19;;;10.76;100.00
6038;BME280;3047;42.600;23.470;2023-05-14T11:24:08;93474.31;;;10.77;100.00
6038;BME280;3047;42.600;23.470;2023-05-14T11:26:35;93465.78;;;10.81;100.00
6038;BME280;3047;42.600;23.470;2023-05-14T11:29:03;93465.03;;;10.79;100.00
6038;BME280;3047;42.600;23.470;2023-05-14T11:31:30;93477.88;;;10.69;100.00
6038;BME280;3047;42.600;23.470;2023-05-14T11:33:56;93475.13;;;10.79;100.00
6038;BME280;3047;42.600;23.470;2023-05-14T11:36:23;93470.00;;;10.82;100.00
6038;BME280;3047;42.600;23.470;2023-05-14T11:38:50;93461.03;;;10.69;100.00
6038;BME280;3047;42.600;23.470;2023-05-14T11:41:18;93463.28;;;10.81;100.00
6038;BME280;3047;42.600;23.470;2023-05-14T11:43:47;93474.03;;;10.89;100.00
6038;BME280;3047;42.600;23.470;2023-05-14T11:46:17;93456.13;;;10.99;100.00
6038;BME280;3047;42.600;23.470;2023-05-14T11:48:43;93466.72;;;11.13;100.00
6038;BME280;3047;42.600;23.470;2023-05-14T11:51:10;93469.25;;;11.14;100.00
6038;BME280;3047;42.600;23.470;2023-05-14T11:53:37;93465.06;;;11.12;100.00
6038;BME280;3047;42.600;23.470;2023-05-14T11:56:04;93451.53;;;11.14;100.00
6038;BME280;3047;42.600;23.470;2023-05-14T11:58:33;93479.44;;;11.10;100.00
6038;BME280;3047;42.600;23.470;2023-05-14T12:00:59;93424.94;;;11.00;100.00
6038;BME280;3047;42.600;23.470;2023-05-14T12:03:26;93455.09;;;11.07;100.00
6038;BME280;3047;42.600;23.470;2023-05-14T12:05:55;93444.81;;;11.13;100.00
6038;BME280;3047;42.600;23.470;2023-05-14T12:08:25;93445.66;;;11.14;100.00
6038;BME280;3047;42.600;23.470;2023-05-14T12:10:52;93404.13;;;10.90;100.00
6038;BME280;3047;42.600;23.470;2023-05-14T12:13:18;93429.53;;;11.18;100.00
6038;BME280;3047;42.600;23.470;2023-05-14T12:15:52;93436.91;;;11.27;100.00
6038;BME280;3047;42.600;23.470;2023-05-14T12:18:19;93451.13;;;11.30;100.00
6038;BME280;3047;42.600;23.470;2023-05-14T12:20:46;93448.72;;;11.25;100.00
6038;BME280;3047;42.600;23.470;2023-05-14T12:23:13;93431.59;;;11.36;100.00
6038;BME280;3047;42.600;23.470;2023-05-14T12:25:48;93399.66;;;11.32;100.00
6038;BME280;3047;42.600;23.470;2023-05-14T12:28:15;93413.81;;;11.39;100.00
6038;BME280;3047;42.600;23.470;2023-05-14T12:30:42;93410.06;;;11.53;100.00
6038;BME280;3047;42.600;23.470;2023-05-14T12:33:10;93418.19;;;11.33;100.00
6038;BME280;3047;42.600;23.470;2023-05-14T12:35:37;93399.59;;;11.35;100.00
6038;BME280;3047;42.600;23.470;2023-05-14T12:38:03;93401.31;;;11.33;100.00
6038;BME280;3047;42.600;23.470;2023-05-14T12:40:30;93389.59;;;11.31;100.00
6038;BME280;3047;42.600;23.470;2023-05-14T12:42:57;93393.91;;;11.26;100.00
6038;BME280;3047;42.600;23.470;2023-05-14T12:45:24;93404.22;;;11.20;100.00
6038;BME280;3047;42.600;23.470;2023-05-14T12:47:50;93420.41;;;11.12;100.00
6038;BME280;3047;42.600;23.470;2023-05-14T12:50:19;93409.41;;;11.13;100.00
6038;BME280;3047;42.600;23.470;2023-05-14T12:52:45;93380.84;;;11.10;100.00
6038;BME280;3047;42.600;23.470;2023-05-14T12:55:12;93392.44;;;11.19;100.00
6038;BME280;3047;42.600;23.470;2023-05-14T12:57:39;93371.69;;;11.06;100.00
6038;BME280;3047;42.600;23.470;2023-05-14T13:00:06;93345.06;;;10.94;100.00
6038;BME280;3047;42.600;23.470;2023-05-14T13:02:34;93337.34;;;10.66;100.00
6038;BME280;3047;42.600;23.470;2023-05-14T13:05:01;93368.44;;;11.01;100.00
6038;BME280;3047;42.600;23.470;2023-05-14T13:07:30;93367.75;;;10.96;100.00
6038;BME280;3047;42.600;23.470;2023-05-14T13:09:56;93379.56;;;10.94;100.00
6038;BME280;3047;42.600;23.470;2023-05-14T13:12:23;93391.44;;;10.92;100.00
6038;BME280;3047;42.600;23.470;2023-05-14T13:14:50;93388.88;;;10.93;100.00
6038;BME280;3047;42.600;23.470;2023-05-14T13:17:17;93375.28;;;10.97;100.00
6038;BME280;3047;42.600;23.470;2023-05-14T13:19:44;93390.53;;;10.94;100.00
6038;BME280;3047;42.600;23.470;2023-05-14T13:22:10;93369.56;;;10.91;100.00
6038;BME280;3047;42.600;23.470;2023-05-14T13:24:40;93368.06;;;10.83;100.00